CheckWX is a tool to help pilots better visualize weather data.  It is not intended as a substitute for an official pre-flight weather briefing.

20:40:43 UTC

VIDP TAF
Indira Gandhi International Airport
New Delhi, India
TAF VIDP 292000Z 2921/3006 26004KT 1000 BR NSC BECMG 3000/3002 0500 MIFG BECMG 3004/3005 33008KT 1000 BR FU

Jan-29@
21:00 UTC

Jan-29 @ 21:00 UTC

Jan-30@
00:00 UTC

Jan-30 @ 00:00 UTC

TAF VIDP 292000Z 2921/3006 26004KT 1000 BR NSC
Wind
  • 260° at 4 KTS
Conditions
Mist
Cloud Levels
  • No significant clouds

Jan-30@
00:00 UTC

Jan-30 @ 00:00 UTC

Jan-30@
04:00 UTC

Jan-30 @ 04:00 UTC

BECMG 3000/3002 0500 MIFG

Becoming

Becoming Conditions expected by Thu, Jan 30, 2020 @ 02:00 UTC

Wind
  • 260° at 4 KTS
Conditions
Shallow Fog
Cloud Levels
  • No significant clouds

Jan-30@
04:00 UTC

Jan-30 @ 04:00 UTC

Jan-30@
06:00 UTC

Jan-30 @ 06:00 UTC

BECMG 3004/3005 33008KT 1000 BR FU

Becoming

Becoming Conditions expected by Thu, Jan 30, 2020 @ 05:00 UTC

Wind
  • 330° at 8 KTS
Conditions
Mist, Smoke
Cloud Levels
  • No significant clouds